createdAt,value
2023-06-04T00:00:10.729Z,98987.00
2023-06-04T00:02:37.957Z,98970.00
2023-06-04T00:05:05.742Z,98974.00
2023-06-04T00:07:32.796Z,98975.00
2023-06-04T00:09:59.863Z,98963.00
2023-06-04T00:12:26.905Z,98965.00
2023-06-04T00:14:53.971Z,98960.00
2023-06-04T00:17:21.167Z,98958.00
2023-06-04T00:19:48.298Z,98950.00
2023-06-04T00:22:15.500Z,98961.00
2023-06-04T00:24:42.696Z,98963.00
2023-06-04T00:27:09.946Z,98968.00
2023-06-04T00:29:37.070Z,98970.00
2023-06-04T00:32:04.868Z,98981.00
2023-06-04T00:34:32.124Z,98970.00
2023-06-04T00:36:59.231Z,98974.00
2023-06-04T00:39:26.262Z,98979.00
2023-06-04T00:41:53.287Z,98966.00
2023-06-04T00:44:20.370Z,98967.00
2023-06-04T00:46:47.386Z,98949.00
2023-06-04T00:49:14.506Z,98966.00
2023-06-04T00:51:41.551Z,98963.00
2023-06-04T00:54:08.886Z,98966.00
2023-06-04T00:56:39.095Z,98957.00
2023-06-04T00:59:07.052Z,98964.00
2023-06-04T01:02:02.537Z,98966.00
2023-06-04T01:04:37.978Z,98964.00
2023-06-04T01:07:06.004Z,98968.00
2023-06-04T01:09:33.085Z,98966.00
2023-06-04T01:12:00.226Z,98968.00
2023-06-04T01:14:27.388Z,98963.00
2023-06-04T01:17:01.671Z,98969.00
2023-06-04T01:19:49.822Z,98968.00
2023-06-04T01:22:51.805Z,98960.00
2023-06-04T01:25:29.048Z,98969.00
2023-06-04T01:27:57.342Z,98973.00
2023-06-04T01:30:33.030Z,98983.00
2023-06-04T01:33:03.936Z,98985.00
2023-06-04T01:35:31.290Z,98984.00
2023-06-04T01:37:58.580Z,98993.00
2023-06-04T01:40:25.956Z,98983.00
2023-06-04T01:42:53.374Z,98988.00
2023-06-04T01:45:22.098Z,99001.00
2023-06-04T01:47:49.275Z,98992.00
2023-06-04T01:50:16.595Z,98983.00
2023-06-04T01:52:43.668Z,98989.00
2023-06-04T01:55:12.891Z,98979.00
2023-06-04T01:57:40.268Z,99000.00
2023-06-04T02:00:10.544Z,98997.00
2023-06-04T02:02:37.896Z,98988.00
2023-06-04T02:05:06.147Z,98988.00
2023-06-04T02:07:33.218Z,98992.00
2023-06-04T02:10:00.338Z,98985.00
2023-06-04T02:12:27.413Z,98990.00
2023-06-04T02:14:54.554Z,98982.00
2023-06-04T02:17:21.793Z,98993.00
2023-06-04T02:19:49.005Z,98978.00
2023-06-04T02:22:17.682Z,98997.00
2023-06-04T02:24:44.739Z,98991.00
2023-06-04T02:27:12.341Z,99002.00
2023-06-04T02:29:42.418Z,98987.00
2023-06-04T02:32:09.871Z,98998.00
2023-06-04T02:34:37.031Z,98991.00
2023-06-04T02:37:04.627Z,98989.00
2023-06-04T02:39:31.658Z,98978.00
2023-06-04T02:41:58.762Z,98998.00
2023-06-04T02:44:27.573Z,99005.00
2023-06-04T02:46:54.925Z,98998.00
2023-06-04T02:49:21.994Z,98999.00
2023-06-04T02:51:49.031Z,98983.00
2023-06-04T02:54:16.119Z,98992.00
2023-06-04T02:56:43.249Z,98999.00
2023-06-04T02:59:12.957Z,98987.00
2023-06-04T03:01:41.697Z,98998.00
2023-06-04T03:04:08.823Z,99000.00
2023-06-04T03:06:35.892Z,98989.00
2023-06-04T03:09:02.966Z,98988.00
2023-06-04T03:11:30.085Z,98994.00
2023-06-04T03:13:57.097Z,98995.00
2023-06-04T03:16:24.274Z,98990.00
2023-06-04T03:18:51.612Z,99001.00
2023-06-04T03:21:18.706Z,99007.00
2023-06-04T03:23:45.834Z,98998.00
2023-06-04T03:26:13.013Z,99017.00
2023-06-04T03:28:40.122Z,99009.00
2023-06-04T03:31:07.397Z,99014.00
2023-06-04T03:33:34.606Z,99019.00
2023-06-04T03:36:01.623Z,99010.00
2023-06-04T03:38:28.650Z,99020.00
2023-06-04T03:40:55.719Z,99019.00
2023-06-04T03:43:23.070Z,99023.00
2023-06-04T03:45:50.117Z,99022.00
2023-06-04T03:48:17.180Z,99016.00
2023-06-04T03:50:44.214Z,99016.00
2023-06-04T03:53:11.273Z,99016.00
2023-06-04T03:55:38.421Z,99024.00
2023-06-04T03:58:05.537Z,99008.00
2023-06-04T04:00:32.528Z,99014.00
2023-06-04T04:02:59.689Z,99012.00
2023-06-04T04:05:26.873Z,98995.00
2023-06-04T04:07:53.969Z,99009.00
2023-06-04T04:10:20.958Z,99022.00
2023-06-04T04:12:48.158Z,99020.00
2023-06-04T04:15:15.311Z,99024.00
2023-06-04T04:17:42.379Z,99028.00
2023-06-04T04:20:09.980Z,99033.00
2023-06-04T04:22:41.640Z,99036.00
2023-06-04T04:25:09.692Z,99042.00
2023-06-04T04:27:36.824Z,99030.00
2023-06-04T04:30:04.290Z,99043.00
2023-06-04T04:32:31.291Z,99040.00
2023-06-04T04:34:58.351Z,99042.00
2023-06-04T04:37:25.422Z,99033.00
2023-06-04T04:39:52.502Z,99053.00
2023-06-04T04:42:20.484Z,99056.00
2023-06-04T04:44:47.508Z,99050.00
2023-06-04T04:47:16.178Z,99049.00
2023-06-04T04:49:43.487Z,99059.00
2023-06-04T04:52:10.508Z,99062.00
2023-06-04T04:54:37.551Z,99066.00
2023-06-04T04:57:13.270Z,99061.00
2023-06-04T04:59:40.712Z,99068.00
2023-06-04T05:02:07.902Z,99068.00
2023-06-04T05:04:35.116Z,99070.00
2023-06-04T05:07:02.341Z,99075.00
2023-06-04T05:09:29.336Z,99073.00
2023-06-04T05:11:56.349Z,99067.00
2023-06-04T05:14:23.460Z,99069.00
2023-06-04T05:16:50.569Z,99070.00
2023-06-04T05:19:18.000Z,99076.00
2023-06-04T05:21:45.475Z,99071.00
2023-06-04T05:24:12.538Z,99069.00
2023-06-04T05:26:39.553Z,99082.00
2023-06-04T05:29:06.748Z,99085.00
2023-06-04T05:31:33.835Z,99081.00
2023-06-04T05:34:01.965Z,99089.00
2023-06-04T05:36:31.397Z,99084.00
2023-06-04T05:38:58.749Z,99077.00
2023-06-04T05:41:25.908Z,99073.00
2023-06-04T05:43:53.110Z,99071.00
2023-06-04T05:46:20.388Z,99078.00
2023-06-04T05:48:47.498Z,99088.00
2023-06-04T05:51:14.845Z,99077.00
2023-06-04T05:53:41.902Z,99075.00
2023-06-04T05:56:08.996Z,99085.00
2023-06-04T05:58:36.063Z,99094.00
2023-06-04T06:01:03.104Z,99094.00
2023-06-04T06:03:30.316Z,99089.00
2023-06-04T06:05:58.041Z,99092.00
2023-06-04T06:08:25.117Z,99094.00
2023-06-04T06:10:52.317Z,99085.00
2023-06-04T06:13:19.555Z,99090.00
2023-06-04T06:15:47.999Z,99094.00
2023-06-04T06:18:15.077Z,99087.00
2023-06-04T06:20:42.090Z,99112.00
2023-06-04T06:23:09.203Z,99114.00
2023-06-04T06:25:36.211Z,99120.00
2023-06-04T06:28:03.366Z,99126.00
2023-06-04T06:30:30.464Z,99125.00
2023-06-04T06:32:57.618Z,99124.00
2023-06-04T06:35:24.912Z,99127.00
2023-06-04T06:37:51.961Z,99126.00
2023-06-04T06:40:20.584Z,99136.00
2023-06-04T06:42:51.261Z,99136.00
2023-06-04T06:45:21.396Z,99147.00
2023-06-04T06:47:48.630Z,99146.00
2023-06-04T06:50:15.832Z,99153.00
2023-06-04T06:52:42.917Z,99150.00
2023-06-04T06:55:10.228Z,99153.00
2023-06-04T06:57:37.226Z,99157.00
2023-06-04T07:00:04.841Z,99143.00
2023-06-04T07:02:32.177Z,99142.00
2023-06-04T07:04:59.252Z,99153.00
2023-06-04T07:07:26.305Z,99147.00
2023-06-04T07:09:53.333Z,99133.00
2023-06-04T07:12:22.944Z,99140.00
2023-06-04T07:15:12.875Z,99133.00
2023-06-04T07:17:39.897Z,99146.00
2023-06-04T07:20:08.052Z,99146.00
2023-06-04T07:22:43.148Z,99137.00
2023-06-04T07:25:22.438Z,99147.00
2023-06-04T07:27:50.070Z,99146.00
2023-06-04T07:30:17.200Z,99158.00
2023-06-04T07:33:02.317Z,99156.00
2023-06-04T07:35:29.430Z,99150.00
2023-06-04T07:37:56.545Z,99153.00
2023-06-04T07:40:23.615Z,99157.00
2023-06-04T07:42:50.673Z,99162.00
2023-06-04T07:45:17.904Z,99162.00
2023-06-04T07:47:45.161Z,99161.00
2023-06-04T07:50:12.255Z,99155.00
2023-06-04T07:52:39.399Z,99169.00
2023-06-04T07:55:07.147Z,99170.00
2023-06-04T07:57:34.262Z,99172.00
2023-06-04T08:00:01.304Z,99168.00
2023-06-04T08:02:28.410Z,99174.00
2023-06-04T08:04:55.581Z,99160.00
2023-06-04T08:07:22.669Z,99175.00
2023-06-04T08:09:49.796Z,99180.00
2023-06-04T08:12:17.588Z,99184.00
2023-06-04T08:14:44.612Z,99182.00
2023-06-04T08:17:12.180Z,99175.00
2023-06-04T08:19:42.311Z,99187.00
2023-06-04T08:22:09.582Z,99170.00
2023-06-04T08:24:36.730Z,99178.00
2023-06-04T08:27:03.935Z,99171.00
2023-06-04T08:29:31.015Z,99189.00
2023-06-04T08:31:58.049Z,99187.00
2023-06-04T08:34:25.138Z,99184.00
2023-06-04T08:36:52.177Z,99179.00
2023-06-04T08:39:19.290Z,99176.00
2023-06-04T08:42:00.829Z,99188.00
2023-06-04T08:44:28.753Z,99189.00
2023-06-04T08:47:03.477Z,99189.00
2023-06-04T08:49:40.322Z,99195.00
2023-06-04T08:52:10.487Z,99196.00
2023-06-04T08:54:37.570Z,99191.00
2023-06-04T08:57:04.795Z,99200.00
2023-06-04T08:59:31.921Z,99197.00
2023-06-04T09:01:58.944Z,99201.00
2023-06-04T09:04:26.066Z,99197.00
2023-06-04T09:06:53.677Z,99188.00
2023-06-04T09:09:20.869Z,99203.00
2023-06-04T09:11:53.348Z,99202.00
2023-06-04T09:14:20.765Z,99197.00
2023-06-04T09:16:52.481Z,99208.00
2023-06-04T09:19:20.590Z,99213.00
2023-06-04T09:21:58.570Z,99208.00
2023-06-04T09:24:27.435Z,99196.00
2023-06-04T09:26:54.469Z,99201.00
2023-06-04T09:29:21.926Z,99205.00
2023-06-04T09:31:58.863Z,99194.00
2023-06-04T09:34:32.194Z,99197.00
2023-06-04T09:37:02.182Z,99207.00
2023-06-04T09:39:29.271Z,99196.00
2023-06-04T09:42:02.814Z,99201.00
2023-06-04T09:44:32.869Z,99208.00
2023-06-04T09:47:00.200Z,99208.00
2023-06-04T09:49:27.379Z,99209.00
2023-06-04T09:51:54.363Z,99214.00
2023-06-04T09:54:21.579Z,99212.00
2023-06-04T09:56:48.631Z,99212.00
2023-06-04T09:59:15.589Z,99212.00
2023-06-04T10:01:42.820Z,99214.00
2023-06-04T10:04:10.441Z,99217.00
2023-06-04T10:06:37.697Z,99214.00
2023-06-04T10:09:08.196Z,99198.00
2023-06-04T10:11:57.977Z,99176.00
2023-06-04T10:14:31.686Z,99180.00
2023-06-04T10:16:58.924Z,99172.00
2023-06-04T10:19:25.952Z,99181.00
2023-06-04T10:21:53.771Z,99178.00
2023-06-04T10:24:20.813Z,99167.00
2023-06-04T10:26:47.989Z,99171.00
2023-06-04T10:29:15.009Z,99183.00
2023-06-04T10:31:42.028Z,99183.00
2023-06-04T10:34:09.291Z,99184.00
2023-06-04T10:36:44.640Z,99181.00
2023-06-04T10:39:11.629Z,99188.00
2023-06-04T10:41:38.901Z,99176.00
2023-06-04T10:44:06.057Z,99178.00
2023-06-04T10:46:43.221Z,99168.00
2023-06-04T10:49:13.610Z,99181.00
2023-06-04T10:51:40.631Z,99171.00
2023-06-04T10:54:07.875Z,99175.00
2023-06-04T10:56:36.094Z,99183.00
2023-06-04T10:59:19.550Z,99171.00
2023-06-04T11:01:46.977Z,99163.00
2023-06-04T11:04:26.854Z,99176.00
2023-06-04T11:07:07.636Z,99188.00
2023-06-04T11:09:34.969Z,99189.00
2023-06-04T11:12:02.409Z,99188.00
2023-06-04T11:14:29.369Z,99189.00
2023-06-04T11:16:56.411Z,99183.00
2023-06-04T11:19:23.611Z,99183.00
2023-06-04T11:21:50.938Z,99180.00
2023-06-04T11:24:18.049Z,99179.00
2023-06-04T11:26:50.732Z,99187.00
2023-06-04T11:29:27.476Z,99184.00
2023-06-04T11:31:54.602Z,99181.00
2023-06-04T11:34:25.976Z,99173.00
2023-06-04T11:36:53.023Z,99178.00
2023-06-04T11:39:23.502Z,99175.00
2023-06-04T11:41:51.650Z,99172.00
2023-06-04T11:44:21.749Z,99171.00
2023-06-04T11:46:48.753Z,99165.00
2023-06-04T11:49:19.741Z,99177.00
2023-06-04T11:51:51.536Z,99182.00
2023-06-04T11:54:19.380Z,99172.00
2023-06-04T11:56:46.390Z,99171.00
2023-06-04T11:59:19.829Z,99153.00
2023-06-04T12:01:47.925Z,99156.00
2023-06-04T12:04:19.826Z,99143.00
2023-06-04T12:06:59.965Z,99147.00
2023-06-04T12:09:31.682Z,99138.00
2023-06-04T12:12:06.415Z,99138.00
2023-06-04T12:14:33.616Z,99150.00
2023-06-04T12:17:02.835Z,99147.00
2023-06-04T12:19:29.914Z,99147.00
2023-06-04T12:22:01.208Z,99133.00
2023-06-04T12:24:28.172Z,99121.00
2023-06-04T12:27:06.605Z,99123.00
2023-06-04T12:29:33.874Z,99130.00
2023-06-04T12:32:05.282Z,99126.00
2023-06-04T12:34:33.225Z,99118.00
2023-06-04T12:37:00.220Z,99122.00
2023-06-04T12:39:27.174Z,99120.00
2023-06-04T12:41:54.169Z,99103.00
2023-06-04T12:44:21.178Z,99111.00
2023-06-04T12:46:48.296Z,99109.00
2023-06-04T12:49:15.312Z,99099.00
2023-06-04T12:51:42.466Z,99102.00
2023-06-04T12:54:10.325Z,99096.00
2023-06-04T12:56:37.333Z,99106.00
2023-06-04T12:59:04.276Z,99090.00
2023-06-04T13:01:31.347Z,99100.00
2023-06-04T13:03:58.400Z,99090.00
2023-06-04T13:06:25.630Z,99070.00
2023-06-04T13:08:52.825Z,99083.00
2023-06-04T13:11:19.787Z,99064.00
2023-06-04T13:13:46.715Z,99067.00
2023-06-04T13:16:13.778Z,99083.00
2023-06-04T13:18:40.900Z,99078.00
2023-06-04T13:21:08.106Z,99070.00
2023-06-04T13:23:49.553Z,99061.00
2023-06-04T13:26:19.089Z,99066.00
2023-06-04T13:28:46.134Z,99059.00
2023-06-04T13:31:13.151Z,99059.00
2023-06-04T13:33:40.161Z,99055.00
2023-06-04T13:36:07.354Z,99052.00
2023-06-04T13:38:34.617Z,99053.00
2023-06-04T13:41:01.634Z,99068.00
2023-06-04T13:43:28.601Z,99063.00
2023-06-04T13:45:55.681Z,99040.00
2023-06-04T13:48:22.637Z,99049.00
2023-06-04T13:50:49.630Z,99057.00
2023-06-04T13:53:16.609Z,99043.00
2023-06-04T13:55:43.673Z,99038.00
2023-06-04T13:58:10.730Z,99027.00
2023-06-04T14:00:37.649Z,99033.00
2023-06-04T14:03:05.084Z,99023.00
2023-06-04T14:05:32.090Z,99021.00
2023-06-04T14:07:59.020Z,99022.00
2023-06-04T14:10:26.137Z,99014.00
2023-06-04T14:12:53.095Z,99011.00
2023-06-04T14:15:20.198Z,99013.00
2023-06-04T14:17:48.401Z,99012.00
2023-06-04T14:20:15.370Z,99007.00
2023-06-04T14:22:42.363Z,99002.00
2023-06-04T14:25:09.760Z,98996.00
2023-06-04T14:27:36.819Z,99001.00
2023-06-04T14:30:04.935Z,99006.00
2023-06-04T14:32:32.033Z,98993.00
2023-06-04T14:34:59.105Z,98988.00
2023-06-04T14:37:26.095Z,98989.00
2023-06-04T14:39:53.038Z,98991.00
2023-06-04T14:42:20.030Z,98984.00
2023-06-04T14:44:47.209Z,98997.00
2023-06-04T14:47:14.202Z,99006.00
2023-06-04T14:49:41.155Z,98991.00
2023-06-04T14:52:08.056Z,98998.00
2023-06-04T14:54:36.305Z,98996.00
2023-06-04T14:57:03.385Z,98983.00
2023-06-04T14:59:30.372Z,98975.00
2023-06-04T15:01:57.338Z,98981.00
2023-06-04T15:04:24.374Z,98979.00
2023-06-04T15:06:51.364Z,98981.00
2023-06-04T15:09:18.349Z,98975.00
2023-06-04T15:11:45.287Z,98972.00
2023-06-04T15:14:12.245Z,98981.00
2023-06-04T15:16:39.201Z,98975.00
2023-06-04T15:19:06.303Z,98966.00
2023-06-04T15:21:33.404Z,98973.00
2023-06-04T15:24:00.469Z,98973.00
2023-06-04T15:26:27.548Z,98982.00
2023-06-04T15:28:55.147Z,98990.00
2023-06-04T15:31:22.234Z,98986.00
2023-06-04T15:33:49.266Z,98984.00
2023-06-04T15:36:16.171Z,98979.00
2023-06-04T15:38:43.165Z,98980.00
2023-06-04T15:41:10.169Z,98984.00
2023-06-04T15:43:37.187Z,98986.00
2023-06-04T15:46:04.230Z,98994.00
2023-06-04T15:48:31.271Z,98989.00
2023-06-04T15:50:58.224Z,98981.00
2023-06-04T15:53:25.170Z,98982.00
2023-06-04T15:55:52.468Z,98987.00
2023-06-04T15:58:19.395Z,98982.00
2023-06-04T16:00:46.335Z,98992.00
2023-06-04T16:03:13.393Z,99000.00
2023-06-04T16:05:41.468Z,98980.00
2023-06-04T16:08:08.369Z,98985.00
2023-06-04T16:10:35.326Z,98996.00
2023-06-04T16:13:02.338Z,98981.00
2023-06-04T16:15:29.322Z,98983.00
2023-06-04T16:17:56.444Z,98982.00
2023-06-04T16:20:23.502Z,98983.00
2023-06-04T16:22:50.485Z,98984.00
2023-06-04T16:25:17.782Z,98984.00
2023-06-04T16:27:46.405Z,98994.00
2023-06-04T16:30:14.405Z,98980.00
2023-06-04T16:32:41.542Z,98984.00
2023-06-04T16:35:09.181Z,98988.00
2023-06-04T16:37:39.380Z,98986.00
2023-06-04T16:40:07.160Z,98985.00
2023-06-04T16:42:34.580Z,98977.00
2023-06-04T16:45:01.682Z,98984.00
2023-06-04T16:47:28.677Z,98998.00
2023-06-04T16:49:55.663Z,98987.00
2023-06-04T16:52:22.589Z,98995.00
2023-06-04T16:54:49.577Z,98989.00
2023-06-04T16:57:16.535Z,99001.00
2023-06-04T16:59:46.729Z,99008.00
2023-06-04T17:02:14.660Z,98995.00
2023-06-04T17:04:42.512Z,98993.00
2023-06-04T17:07:10.689Z,98992.00
2023-06-04T17:09:38.301Z,98990.00
2023-06-04T17:12:05.731Z,98995.00
2023-06-04T17:14:32.680Z,99005.00
2023-06-04T17:16:59.860Z,99006.00
2023-06-04T17:19:26.948Z,99016.00
2023-06-04T17:21:54.268Z,99018.00
2023-06-04T17:24:21.242Z,99023.00
2023-06-04T17:26:48.215Z,99021.00
2023-06-04T17:29:15.200Z,99024.00
2023-06-04T17:31:42.197Z,99031.00
2023-06-04T17:34:09.114Z,99031.00
2023-06-04T17:36:36.076Z,99033.00
2023-06-04T17:39:03.089Z,99035.00
2023-06-04T17:41:30.160Z,99033.00
2023-06-04T17:43:57.126Z,99039.00
2023-06-04T17:46:24.205Z,99041.00
2023-06-04T17:48:51.448Z,99053.00
2023-06-04T17:51:18.667Z,99057.00
2023-06-04T17:53:47.765Z,99054.00
2023-06-04T17:56:14.810Z,99066.00
2023-06-04T17:58:41.748Z,99061.00
2023-06-04T18:01:08.930Z,99053.00
2023-06-04T18:03:36.061Z,99063.00
2023-06-04T18:06:03.080Z,99044.00
2023-06-04T18:08:30.048Z,99060.00
2023-06-04T18:10:57.074Z,99066.00
2023-06-04T18:13:24.624Z,99064.00
2023-06-04T18:15:51.628Z,99057.00
2023-06-04T18:18:18.983Z,99071.00
2023-06-04T18:20:46.030Z,99066.00
2023-06-04T18:23:13.023Z,99054.00
2023-06-04T18:25:40.001Z,99054.00
2023-06-04T18:28:06.974Z,99052.00
2023-06-04T18:30:33.978Z,99056.00
2023-06-04T18:33:01.053Z,99059.00
2023-06-04T18:35:28.176Z,99062.00
2023-06-04T18:37:55.610Z,99055.00
2023-06-04T18:40:22.629Z,99058.00
2023-06-04T18:42:49.638Z,99061.00
2023-06-04T18:45:16.705Z,99055.00
2023-06-04T18:47:44.008Z,99051.00
2023-06-04T18:50:11.566Z,99064.00
2023-06-04T18:52:38.516Z,99049.00
2023-06-04T18:55:10.003Z,99054.00
2023-06-04T18:57:37.484Z,99037.00
2023-06-04T19:00:05.618Z,99049.00
2023-06-04T19:02:32.612Z,99036.00
2023-06-04T19:04:59.600Z,99036.00
2023-06-04T19:07:26.540Z,99021.00
2023-06-04T19:09:53.565Z,99016.00
2023-06-04T19:12:20.529Z,99019.00
2023-06-04T19:14:47.582Z,99024.00
2023-06-04T19:17:18.650Z,99025.00
2023-06-04T19:19:50.329Z,99020.00
2023-06-04T19:22:17.385Z,99027.00
2023-06-04T19:24:44.769Z,99035.00
2023-06-04T19:27:11.821Z,99018.00
2023-06-04T19:29:38.975Z,99037.00
2023-06-04T19:32:06.737Z,99032.00
2023-06-04T19:34:33.843Z,99048.00
2023-06-04T19:37:00.795Z,99053.00
2023-06-04T19:39:28.577Z,99054.00
2023-06-04T19:41:55.599Z,99040.00
2023-06-04T19:44:22.653Z,99051.00
2023-06-04T19:46:49.705Z,99055.00
2023-06-04T19:49:16.925Z,99057.00
2023-06-04T19:51:43.868Z,99061.00
2023-06-04T19:54:10.908Z,99060.00
2023-06-04T19:56:38.645Z,99068.00
2023-06-04T19:59:05.649Z,99066.00
2023-06-04T20:01:32.647Z,99068.00
2023-06-04T20:03:59.851Z,99070.00
2023-06-04T20:06:26.833Z,99062.00
2023-06-04T20:08:53.866Z,99073.00
2023-06-04T20:11:20.799Z,99079.00
2023-06-04T20:13:47.730Z,99068.00
2023-06-04T20:16:14.728Z,99078.00
2023-06-04T20:18:41.710Z,99070.00
2023-06-04T20:21:08.793Z,99076.00
2023-06-04T20:23:36.560Z,99072.00
2023-06-04T20:26:03.689Z,99079.00
2023-06-04T20:28:30.774Z,99073.00
2023-06-04T20:30:57.837Z,99079.00
2023-06-04T20:33:24.779Z,99077.00
2023-06-04T20:35:51.777Z,99077.00
2023-06-04T20:38:18.727Z,99074.00
2023-06-04T20:40:45.839Z,99081.00
2023-06-04T20:43:15.280Z,99069.00
2023-06-04T20:45:42.811Z,99063.00
2023-06-04T20:48:09.896Z,99072.00
2023-06-04T20:50:36.978Z,99070.00
2023-06-04T20:53:03.958Z,99073.00
2023-06-04T20:55:30.916Z,99065.00
2023-06-04T20:57:57.877Z,99069.00
2023-06-04T21:00:24.868Z,99071.00
2023-06-04T21:02:51.894Z,99073.00
2023-06-04T21:05:19.038Z,99079.00
2023-06-04T21:07:46.039Z,99072.00
2023-06-04T21:10:13.162Z,99081.00
2023-06-04T21:12:40.139Z,99083.00
2023-06-04T21:15:07.865Z,99082.00
2023-06-04T21:17:34.969Z,99075.00
2023-06-04T21:20:02.041Z,99077.00
2023-06-04T21:22:29.018Z,99082.00
2023-06-04T21:24:55.995Z,99088.00
2023-06-04T21:27:23.059Z,99075.00
2023-06-04T21:29:50.065Z,99086.00
2023-06-04T21:32:17.062Z,99089.00
2023-06-04T21:34:44.064Z,99090.00
2023-06-04T21:37:11.084Z,99085.00
2023-06-04T21:39:38.101Z,99101.00
2023-06-04T21:42:05.248Z,99101.00
2023-06-04T21:44:32.336Z,99105.00
2023-06-04T21:46:59.812Z,99107.00
2023-06-04T21:49:26.832Z,99097.00
2023-06-04T21:51:53.806Z,99114.00
2023-06-04T21:54:20.762Z,99113.00
2023-06-04T21:56:47.838Z,99103.00
2023-06-04T21:59:14.846Z,99113.00
2023-06-04T22:01:41.874Z,99111.00
2023-06-04T22:04:08.852Z,99105.00
2023-06-04T22:06:35.845Z,99104.00
2023-06-04T22:09:04.144Z,99096.00
2023-06-04T22:11:31.179Z,99095.00
2023-06-04T22:13:58.170Z,99101.00
2023-06-04T22:16:25.185Z,99098.00
2023-06-04T22:18:53.960Z,99090.00
2023-06-04T22:21:21.655Z,99086.00
2023-06-04T22:23:49.004Z,99091.00
2023-06-04T22:26:28.335Z,99076.00
2023-06-04T22:29:03.094Z,99089.00
2023-06-04T22:31:30.288Z,99083.00
2023-06-04T22:33:57.293Z,99094.00
2023-06-04T22:36:24.204Z,99089.00
2023-06-04T22:38:51.213Z,99098.00
2023-06-04T22:41:18.279Z,99099.00
2023-06-04T22:43:45.215Z,99087.00
2023-06-04T22:46:12.211Z,99095.00
2023-06-04T22:48:39.218Z,99102.00
2023-06-04T22:51:06.355Z,99091.00
2023-06-04T22:53:33.468Z,99095.00
2023-06-04T22:56:00.493Z,99096.00
2023-06-04T22:58:27.520Z,99072.00
2023-06-04T23:00:54.472Z,99088.00
2023-06-04T23:03:21.455Z,99099.00
2023-06-04T23:05:48.492Z,99099.00
2023-06-04T23:08:15.477Z,99089.00
2023-06-04T23:10:42.452Z,99106.00
2023-06-04T23:13:09.400Z,99091.00
2023-06-04T23:15:36.441Z,99102.00
2023-06-04T23:18:03.497Z,99099.00
2023-06-04T23:20:30.528Z,99095.00
2023-06-04T23:22:57.453Z,99093.00
2023-06-04T23:25:24.469Z,99098.00
2023-06-04T23:27:51.412Z,99104.00
2023-06-04T23:30:18.492Z,99091.00
2023-06-04T23:32:46.490Z,99097.00
2023-06-04T23:35:13.576Z,99105.00
2023-06-04T23:37:40.516Z,99111.00
2023-06-04T23:40:08.351Z,99111.00
2023-06-04T23:42:35.318Z,99107.00
2023-06-04T23:45:02.284Z,99101.00
2023-06-04T23:47:29.323Z,99115.00
2023-06-04T23:49:56.333Z,99117.00
2023-06-04T23:52:23.291Z,99119.00
2023-06-04T23:54:50.284Z,99121.00
2023-06-04T23:57:17.212Z,99120.00
2023-06-04T23:59:44.197Z,99126.00
